LROPLTAP

Guest
Details From LROP - Bucarest Otopeni Intl
To LTAP - Merzifon
Flight Number -
Tags Generated
Created
Modified
Stats Distance 473 nm / 875 km
Max Altitude 0 ft / 0 m
Waypoints 2
Social Downloads 0
Likes 0
Share VATSIM

Download

Looking for another format? Having issues loading an existing format? Contact us
Advertisement - Login to hide

Notes

Generated

Route

LROP LTAP

ID Type Via Altitude Latitude Longitude Leg Dist Tot Dist Heading (true) Name
O LROP APT - 0 ft / 0 m 44.57648˚ 26.08393˚ - 0 nm - -
O LTAP APT - 0 ft / 0 m 40.82174˚ 35.50786˚ 472 nm 472 nm 115° / 122° -

Altitude Profile

Advertisement - Login to hide

Weather


0- 5 10 15 20 25 30 35+ Temperature / ° C

Clouds and Precipitation
Forecast for 2017-12-15 12:00 UTC. Updated an hour ago

Ground ~20,000 ft ~40,000 ft Winds

LROP

Details ICAO LROP (OTP)
Name Bucarest Otopeni Intl
Region Romania
Timezone Europe/Bucharest (UTC+2.0)
Stats Elevation 314 ft / 96 m (AMSL)
Location 44.572161° 26.102177°
Runways 2
Magnetic Variation 5.606° E

METAR

LROP 151230Z 32003KT CAVOK 11/06 Q1009 NOSIG

Decode

TAF

TAF LROP 151100Z 1512/1612 25005KT CAVOK BECMG 1518/1520 3000 BR BECMG 1522/1524 1500 BR BKN005 BECMG 1600/1602 0600 FG OVC002 TEMPO 1602/1606 0300 FG VV001 BECMG 1607/1609 3000 BR BKN010 BECMG 1609/1611 CAVOK

Decode

Departure Runways

ID Width Length Bearing (true) Bearing (mag) Surface Threshold Offset Overrun Length
08L 148 ft / 45 m 11,457 ft / 3,492 m 83.91° 78.30° Asphalt 500 ft / 152 m 0 ft / 0 m
08R 148 ft / 45 m 11,455 ft / 3,491 m 83.89° 78.28° Asphalt 450 ft / 137 m 0 ft / 0 m
26L 148 ft / 45 m 11,455 ft / 3,491 m 263.92° 258.31° Asphalt 450 ft / 137 m 0 ft / 0 m
26R 148 ft / 45 m 11,457 ft / 3,492 m 263.94° 258.33° Asphalt 500 ft / 152 m 0 ft / 0 m

LTAP

Details ICAO LTAP (MZH)
Name MERZIFON
Region Turkey
Timezone Europe/Istanbul (UTC+3.0)
Stats Elevation 1,758 ft / 536 m (AMSL)
Location 40.829374° 35.521990°
Runways 1
Magnetic Variation 6.039° E

METAR

LTAP 151220Z VRB02KT 9999 SCT040 11/03 Q1018 NOSIG RMK RWY23 VRB01KT

Decode

TAF

Not found

Destination Runways

ID Width Length Bearing (true) Bearing (mag) Surface Threshold Offset Overrun Length
05 148 ft / 45 m 9,589 ft / 2,923 m 54.47° 48.43° Asphalt 0 ft / 0 m 798 ft / 243 m
23 148 ft / 45 m 9,589 ft / 2,923 m 234.48° 228.44° Asphalt 0 ft / 0 m 1,006 ft / 307 m